Time;durP1;ratioP1;P1;durP2;ratioP2;P2;SDS_P1;SDS_P2;PMS_P1;PMS_P2;Temp;Humidity;BMP_temperature;BMP_pressure;BME280_temperature;BME280_humidity;BME280_pressure;Samples;Min_cycle;Max_cycle;Signal;HPM_P1;HPM_P2
2022/11/21 00:00:23;;;;;;;53.95;25.33;;;;;;;;;;6246214;23;19996;-77
2022/11/21 00:02:49;;;;;;;54.17;24.02;;;;;;;;;;6218326;23;20087;-78
2022/11/21 00:05:15;;;;;;;56.28;25.27;;;;;;;;;;6246367;23;20003;-78
2022/11/21 00:07:44;;;;;;;62.30;28.40;;;;;;;;;;6244867;23;20087;-79
2022/11/21 00:10:10;;;;;;;67.30;29.02;;;;;;;;;;6245611;23;20002;-77
2022/11/21 00:12:36;;;;;;;63.08;26.95;;;;;;;;;;6244971;23;20430;-78
2022/11/21 00:15:03;;;;;;;73.40;31.70;;;;;;;;;;6245358;23;20036;-76
2022/11/21 00:17:31;;;;;;;66.07;29.52;;;;;;;;;;6245492;23;20015;-78
2022/11/21 00:19:57;;;;;;;67.75;29.25;;;;;;;;;;6218585;23;20083;-77
2022/11/21 00:22:23;;;;;;;68.38;28.88;;;;;;;;;;6218884;23;20003;-76
2022/11/21 00:24:49;;;;;;;72.45;31.67;;;;;;;;;;6217977;23;20087;-77
2022/11/21 00:27:15;;;;;;;70.55;31.65;;;;;;;;;;6245271;23;19996;-77
2022/11/21 00:29:41;;;;;;;71.85;31.88;;;;;;;;;;6218536;23;20000;-78
2022/11/21 00:32:07;;;;;;;72.80;31.90;;;;;;;;;;6245252;23;20444;-77
2022/11/21 00:34:33;;;;;;;69.50;31.95;;;;;;;;;;6245203;23;20007;-77
2022/11/21 00:36:59;;;;;;;68.72;30.10;;;;;;;;;;6246046;23;20008;-77
2022/11/21 00:39:25;;;;;;;71.13;31.67;;;;;;;;;;6256820;23;20004;-77
2022/11/21 00:41:51;;;;;;;67.13;29.90;;;;;;;;;;6262687;23;20015;-77
2022/11/21 00:44:17;;;;;;;76.50;31.33;;;;;;;;;;6268288;23;20008;-77
2022/11/21 00:46:43;;;;;;;67.60;29.52;;;;;;;;;;6244007;23;20014;-77
2022/11/21 00:49:09;;;;;;;79.53;32.53;;;;;;;;;;6267387;23;20079;-77
2022/11/21 00:51:35;;;;;;;83.78;33.55;;;;;;;;;;6233588;23;20154;-75
2022/11/21 00:54:01;;;;;;;71.03;32.17;;;;;;;;;;6245439;23;19997;-78
2022/11/21 00:56:27;;;;;;;71.00;30.52;;;;;;;;;;6245423;23;20007;-77
2022/11/21 00:58:53;;;;;;;73.10;30.15;;;;;;;;;;6218226;23;20395;-77
2022/11/21 01:01:19;;;;;;;67.43;32.42;;;;;;;;;;6218239;23;20111;-78
2022/11/21 01:03:45;;;;;;;80.10;31.70;;;;;;;;;;6246797;23;20035;-79
2022/11/21 01:06:12;;;;;;;80.43;34.17;;;;;;;;;;6245160;23;20391;-77
2022/11/21 01:08:40;;;;;;;78.30;32.58;;;;;;;;;;6244826;23;20023;-77
2022/11/21 01:11:07;;;;;;;80.30;32.65;;;;;;;;;;6223070;23;20087;-77
2022/11/21 01:13:33;;;;;;;78.88;32.25;;;;;;;;;;6258445;23;20389;-76
2022/11/21 01:16:06;;;;;;;78.40;33.55;;;;;;;;;;6234711;23;20023;-78
2022/11/21 01:18:33;;;;;;;83.68;34.30;;;;;;;;;;6220889;23;20010;-78
2022/11/21 01:21:00;;;;;;;74.75;32.72;;;;;;;;;;6218491;23;20015;-77
2022/11/21 01:23:27;;;;;;;82.72;33.03;;;;;;;;;;6219266;23;20000;-79
2022/11/21 01:25:53;;;;;;;71.05;30.85;;;;;;;;;;6218806;23;20016;-78
2022/11/21 01:28:19;;;;;;;72.85;31.90;;;;;;;;;;6219292;23;20000;-78
2022/11/21 01:30:45;;;;;;;73.40;31.63;;;;;;;;;;6246004;23;20053;-78
2022/11/21 01:33:11;;;;;;;71.25;30.73;;;;;;;;;;6218149;23;20087;-78
2022/11/21 01:35:37;;;;;;;75.53;31.02;;;;;;;;;;6218023;23;20030;-78
2022/11/21 01:38:03;;;;;;;68.53;31.30;;;;;;;;;;6244185;23;20375;-78
2022/11/21 01:40:29;;;;;;;73.43;31.70;;;;;;;;;;6217630;23;20004;-78
2022/11/21 01:42:59;;;;;;;71.68;31.20;;;;;;;;;;6217455;23;20449;-78
2022/11/21 01:45:44;;;;;;;77.95;32.20;;;;;;;;;;6244310;23;20345;-76
2022/11/21 01:48:10;;;;;;;71.00;30.65;;;;;;;;;;6244300;23;20441;-78
2022/11/21 01:50:36;;;;;;;71.72;31.30;;;;;;;;;;6244585;23;19996;-78
2022/11/21 01:53:02;;;;;;;75.05;31.73;;;;;;;;;;6244807;23;20012;-78
2022/11/21 01:55:28;;;;;;;68.00;30.33;;;;;;;;;;6244660;23;20000;-78
2022/11/21 01:57:54;;;;;;;70.80;30.33;;;;;;;;;;6244119;23;20075;-78
2022/11/21 02:00:24;;;;;;;80.20;33.58;;;;;;;;;;6244610;23;20019;-78
2022/11/21 02:02:52;;;;;;;79.40;31.88;;;;;;;;;;6217876;23;20008;-78
2022/11/21 02:05:25;;;;;;;78.63;33.22;;;;;;;;;;6217777;23;20000;-77
2022/11/21 02:07:53;;;;;;;71.10;29.85;;;;;;;;;;6244830;23;20004;-78
2022/11/21 02:10:20;;;;;;;73.45;32.75;;;;;;;;;;6218638;23;20008;-78
2022/11/21 02:12:50;;;;;;;68.90;29.92;;;;;;;;;;6218448;23;20005;-78
2022/11/21 02:15:20;;;;;;;70.60;29.30;;;;;;;;;;6244608;23;20000;-78
2022/11/21 02:17:46;;;;;;;69.53;26.08;;;;;;;;;;6244586;23;20000;-78
2022/11/21 02:20:14;;;;;;;67.47;28.58;;;;;;;;;;6217425;23;20034;-78
2022/11/21 02:22:40;;;;;;;62.05;26.75;;;;;;;;;;6244496;23;20005;-78
2022/11/21 02:25:08;;;;;;;62.30;27.23;;;;;;;;;;6244903;23;20478;-79
2022/11/21 02:27:34;;;;;;;61.83;27.58;;;;;;;;;;6244080;23;20000;-78
2022/11/21 02:30:01;;;;;;;63.88;28.08;;;;;;;;;;6244205;23;20007;-77
2022/11/21 02:32:38;;;;;;;61.92;26.30;;;;;;;;;;6244167;23;20000;-76
2022/11/21 02:35:04;;;;;;;67.40;26.38;;;;;;;;;;6244214;23;20513;-76
2022/11/21 02:37:31;;;;;;;60.53;25.10;;;;;;;;;;6244741;23;20051;-77
2022/11/21 02:39:58;;;;;;;62.88;26.27;;;;;;;;;;6218145;23;20023;-77
2022/11/21 02:42:44;;;;;;;59.70;24.20;;;;;;;;;;6244212;23;20004;-75
2022/11/21 02:45:22;;;;;;;62.10;27.05;;;;;;;;;;6216884;23;20414;-77
2022/11/21 02:47:49;;;;;;;58.05;26.10;;;;;;;;;;6243933;23;19992;-77
2022/11/21 02:50:19;;;;;;;56.35;23.70;;;;;;;;;;6244090;23;20004;-79
2022/11/21 02:52:45;;;;;;;61.95;28.30;;;;;;;;;;6216996;23;20000;-76
2022/11/21 02:55:12;;;;;;;65.88;28.63;;;;;;;;;;6243947;23;20110;-77
2022/11/21 02:57:39;;;;;;;62.60;28.48;;;;;;;;;;6217284;23;20008;-78
2022/11/21 03:00:05;;;;;;;58.92;26.50;;;;;;;;;;6217558;23;20008;-77
2022/11/21 03:02:31;;;;;;;69.05;28.95;;;;;;;;;;6217532;23;20430;-77
2022/11/21 03:04:57;;;;;;;62.17;25.40;;;;;;;;;;6217113;23;20004;-77
2022/11/21 03:07:24;;;;;;;62.50;26.70;;;;;;;;;;6244019;23;20074;-78
2022/11/21 03:09:50;;;;;;;66.65;27.88;;;;;;;;;;6244305;23;20015;-78
2022/11/21 03:12:16;;;;;;;64.50;25.30;;;;;;;;;;6217808;23;20005;-76
2022/11/21 03:14:42;;;;;;;61.67;27.38;;;;;;;;;;6244861;23;20004;-77
2022/11/21 03:17:11;;;;;;;60.95;25.63;;;;;;;;;;6217647;23;20040;-75
2022/11/21 03:19:39;;;;;;;54.05;25.02;;;;;;;;;;6217093;23;20066;-77
2022/11/21 03:22:09;;;;;;;52.47;24.55;;;;;;;;;;6244245;23;20004;-77
2022/11/21 03:24:35;;;;;;;59.45;24.73;;;;;;;;;;6245171;23;20011;-78
2022/11/21 03:27:09;;;;;;;63.63;25.13;;;;;;;;;;6246068;23;20000;-77
2022/11/21 03:29:35;;;;;;;51.78;22.85;;;;;;;;;;6246112;23;20004;-77
2022/11/21 03:32:01;;;;;;;58.05;24.05;;;;;;;;;;6219328;23;20079;-77
2022/11/21 03:34:28;;;;;;;52.72;24.25;;;;;;;;;;6219425;23;20058;-76
2022/11/21 03:36:54;;;;;;;56.45;23.10;;;;;;;;;;6247213;23;20023;-77
2022/11/21 03:39:22;;;;;;;64.05;23.20;;;;;;;;;;6247858;23;20011;-76
2022/11/21 03:41:48;;;;;;;52.75;23.58;;;;;;;;;;6221017;23;20390;-77
2022/11/21 03:44:17;;;;;;;52.50;23.08;;;;;;;;;;6219480;23;20336;-78
2022/11/21 03:46:45;;;;;;;65.85;25.70;;;;;;;;;;6247201;23;19996;-77
2022/11/21 03:49:15;;;;;;;58.17;24.02;;;;;;;;;;6218919;23;20007;-78
2022/11/21 03:51:42;;;;;;;59.72;24.25;;;;;;;;;;6218954;23;20004;-78
2022/11/21 03:54:08;;;;;;;63.35;24.42;;;;;;;;;;6245662;23;20050;-78
2022/11/21 03:56:34;;;;;;;50.42;22.67;;;;;;;;;;6246279;23;20004;-78
2022/11/21 03:59:00;;;;;;;49.03;21.17;;;;;;;;;;6218658;23;20412;-78
2022/11/21 04:01:26;;;;;;;56.70;22.98;;;;;;;;;;6245866;23;20452;-77
2022/11/21 04:03:52;;;;;;;47.85;20.38;;;;;;;;;;6218848;23;20008;-78
2022/11/21 04:06:19;;;;;;;51.05;22.35;;;;;;;;;;6218852;23;20455;-79
2022/11/21 04:08:46;;;;;;;55.63;22.60;;;;;;;;;;6245428;23;19999;-78
2022/11/21 04:11:12;;;;;;;51.53;22.00;;;;;;;;;;6245633;23;20388;-79
2022/11/21 04:13:38;;;;;;;55.47;22.65;;;;;;;;;;6218427;23;20008;-78
2022/11/21 04:16:07;;;;;;;53.70;22.17;;;;;;;;;;6218203;23;20023;-78
2022/11/21 04:18:34;;;;;;;60.95;23.35;;;;;;;;;;6218250;23;20004;-78
2022/11/21 04:21:01;;;;;;;55.03;22.63;;;;;;;;;;6245821;23;20012;-77
2022/11/21 04:23:27;;;;;;;53.95;22.90;;;;;;;;;;6245842;23;20000;-79
2022/11/21 04:25:53;;;;;;;52.53;22.55;;;;;;;;;;6245863;23;20014;-78
2022/11/21 04:28:20;;;;;;;47.33;22.40;;;;;;;;;;6218886;23;20004;-78
2022/11/21 04:30:46;;;;;;;50.53;23.63;;;;;;;;;;6219556;23;20020;-78
2022/11/21 04:33:13;;;;;;;52.00;22.83;;;;;;;;;;6248971;23;20354;-79
2022/11/21 04:35:41;;;;;;;56.50;23.80;;;;;;;;;;6254399;23;20118;-80
2022/11/21 04:38:07;;;;;;;48.97;23.05;;;;;;;;;;6227100;23;20502;-79
2022/11/21 04:40:34;;;;;;;59.25;23.50;;;;;;;;;;6253824;23;20409;-78
2022/11/21 04:43:01;;;;;;;57.92;22.58;;;;;;;;;;6246512;23;20432;-78
2022/11/21 04:45:27;;;;;;;54.25;22.00;;;;;;;;;;6245184;23;20011;-77
2022/11/21 04:47:53;;;;;;;51.80;23.88;;;;;;;;;;6245467;23;20054;-78
2022/11/21 04:50:19;;;;;;;54.88;23.80;;;;;;;;;;6218953;23;20000;-78
2022/11/21 04:52:52;;;;;;;52.03;21.25;;;;;;;;;;6246251;23;19999;-79
2022/11/21 04:55:18;;;;;;;46.20;20.40;;;;;;;;;;6246370;23;20014;-78
2022/11/21 04:57:45;;;;;;;45.42;20.45;;;;;;;;;;6218964;23;20448;-79
2022/11/21 05:00:14;;;;;;;43.90;19.55;;;;;;;;;;6219576;23;20008;-78
2022/11/21 05:02:40;;;;;;;44.50;21.67;;;;;;;;;;6218656;23;20008;-78
2022/11/21 05:05:07;;;;;;;45.63;19.67;;;;;;;;;;6245211;23;20046;-78
2022/11/21 05:07:36;;;;;;;45.08;20.23;;;;;;;;;;6245229;23;19996;-79
2022/11/21 05:10:05;;;;;;;42.42;19.83;;;;;;;;;;6245471;23;20007;-78
2022/11/21 05:15:16;;;;;;;48.35;19.88;;;;;;;;;;6245032;23;20467;-79
2022/11/21 05:17:43;;;;;;;45.70;20.17;;;;;;;;;;6219089;23;20444;-79
2022/11/21 05:20:09;;;;;;;46.67;20.33;;;;;;;;;;6218178;23;20011;-79
2022/11/21 05:22:35;;;;;;;48.50;21.63;;;;;;;;;;6219675;23;20030;-80
2022/11/21 05:25:06;;;;;;;43.63;19.70;;;;;;;;;;6244939;23;20008;-79
2022/11/21 05:27:36;;;;;;;46.08;20.90;;;;;;;;;;6218621;23;20022;-76
2022/11/21 05:30:02;;;;;;;45.20;18.35;;;;;;;;;;6218250;23;20071;-78
2022/11/21 05:32:31;;;;;;;41.25;19.38;;;;;;;;;;6246035;23;20071;-77
2022/11/21 05:34:57;;;;;;;44.80;19.98;;;;;;;;;;6221390;23;20111;-77
2022/11/21 05:37:23;;;;;;;42.60;19.10;;;;;;;;;;6247394;23;20064;-78
2022/11/21 05:39:49;;;;;;;38.78;18.70;;;;;;;;;;6218534;23;20091;-76
2022/11/21 05:43:44;;;;;;;43.13;20.70;;;;;;;;;;6245361;23;20015;-79
2022/11/21 05:45:08;;;;;;;42.92;19.50;;;;;;;;;;6246486;23;20091;-80
2022/11/21 05:47:34;;;;;;;47.42;21.42;;;;;;;;;;6218588;23;20004;-78
2022/11/21 05:50:00;;;;;;;50.63;23.10;;;;;;;;;;6244277;23;20062;-80
2022/11/21 05:52:27;;;;;;;53.00;24.00;;;;;;;;;;6217690;23;20079;-81
2022/11/21 05:54:53;;;;;;;50.42;24.85;;;;;;;;;;6218160;23;20004;-79
2022/11/21 05:57:19;;;;;;;52.35;24.90;;;;;;;;;;6218539;23;20015;-79
2022/11/21 05:59:48;;;;;;;57.92;26.05;;;;;;;;;;6249189;23;19996;-78
2022/11/21 06:04:58;;;;;;;52.97;25.00;;;;;;;;;;6244389;23;20396;-78
2022/11/21 06:07:24;;;;;;;57.50;25.77;;;;;;;;;;6217406;23;20004;-78
2022/11/21 06:09:50;;;;;;;53.35;24.58;;;;;;;;;;6218495;23;20004;-78
2022/11/21 06:12:20;;;;;;;49.53;24.05;;;;;;;;;;6220263;23;20004;-78
2022/11/21 06:14:48;;;;;;;45.88;23.08;;;;;;;;;;6245128;23;20011;-78
2022/11/21 06:17:14;;;;;;;44.47;23.60;;;;;;;;;;6253795;23;20087;-77
2022/11/21 06:19:43;;;;;;;44.38;22.38;;;;;;;;;;6230935;23;20015;-78
2022/11/21 06:22:10;;;;;;;47.60;23.42;;;;;;;;;;6232367;23;20015;-81
2022/11/21 06:24:36;;;;;;;43.65;21.80;;;;;;;;;;6256674;23;20008;-77
2022/11/21 06:27:04;;;;;;;42.95;21.00;;;;;;;;;;6218513;23;20030;-80
2022/11/21 06:29:35;;;;;;;43.65;21.77;;;;;;;;;;6217594;23;19996;-80
2022/11/21 06:32:03;;;;;;;45.38;21.75;;;;;;;;;;6217317;23;20083;-79
2022/11/21 06:34:30;;;;;;;43.53;21.67;;;;;;;;;;6217354;23;20008;-78
2022/11/21 06:36:56;;;;;;;45.40;21.45;;;;;;;;;;6218255;23;20444;-79
2022/11/21 06:39:22;;;;;;;40.47;20.60;;;;;;;;;;6217788;23;20015;-77
2022/11/21 06:41:49;;;;;;;39.78;20.75;;;;;;;;;;6217225;23;20008;-78
2022/11/21 06:44:18;;;;;;;50.55;22.50;;;;;;;;;;6244783;23;20007;-76
2022/11/21 06:46:45;;;;;;;40.58;21.67;;;;;;;;;;6218765;23;20004;-79
2022/11/21 06:49:14;;;;;;;41.63;20.95;;;;;;;;;;6218406;23;20437;-79
2022/11/21 06:51:48;;;;;;;44.78;21.27;;;;;;;;;;6218366;23;20000;-79
2022/11/21 06:54:14;;;;;;;48.60;22.60;;;;;;;;;;6246023;23;20286;-79
2022/11/21 06:56:40;;;;;;;44.15;19.67;;;;;;;;;;6244665;23;20432;-79
2022/11/21 06:59:06;;;;;;;41.17;20.60;;;;;;;;;;6217294;23;20463;-78
2022/11/21 07:01:35;;;;;;;48.78;21.20;;;;;;;;;;6220129;23;20004;-79
2022/11/21 07:04:01;;;;;;;45.65;20.52;;;;;;;;;;6246457;23;20079;-80
2022/11/21 07:06:27;;;;;;;39.35;20.02;;;;;;;;;;6220656;23;20007;-78
2022/11/21 07:08:53;;;;;;;35.75;16.65;;;;;;;;;;6245583;23;20004;-78
2022/11/21 07:11:20;;;;;;;31.45;15.82;;;;;;;;;;6219089;23;20008;-79
2022/11/21 07:13:46;;;;;;;26.48;13.43;;;;;;;;;;6218769;23;20455;-79
2022/11/21 07:16:17;;;;;;;27.13;12.20;;;;;;;;;;6246236;23;20004;-79
2022/11/21 07:18:44;;;;;;;15.85;8.85;;;;;;;;;;6218839;23;20016;-79
2022/11/21 07:21:16;;;;;;;15.73;8.18;;;;;;;;;;6219156;23;20386;-80
2022/11/21 07:29:12;;;;;;;12.10;7.07;;;;;;;;;;6245553;23;20019;-77
2022/11/21 07:32:07;;;;;;;14.93;7.65;;;;;;;;;;6245088;23;19996;-80
2022/11/21 07:35:18;;;;;;;;;;;;;;;;;;;;;
2022/11/21 07:37:55;;;;;;;11.82;7.93;;;;;;;;;;6251095;23;20038;-81
2022/11/21 07:40:56;;;;;;;14.25;8.60;;;;;;;;;;6224004;23;20012;-78
2022/11/21 07:43:28;;;;;;;14.55;9.30;;;;;;;;;;6208846;23;20004;-80
2022/11/21 07:46:09;;;;;;;19.95;10.98;;;;;;;;;;6248501;23;19996;-80
2022/11/21 07:52:18;;;;;;;25.73;14.48;;;;;;;;;;6189392;23;20079;-80
2022/11/21 07:58:43;;;;;;;25.88;14.70;;;;;;;;;;6250455;23;20441;-81
2022/11/21 08:13:00;;;;;;;29.17;16.52;;;;;;;;;;6259007;23;20019;-82
2022/11/21 08:15:39;;;;;;;21.98;12.50;;;;;;;;;;6223613;23;20000;-84
2022/11/21 08:18:26;;;;;;;30.45;17.20;;;;;;;;;;6226578;23;20313;-80
2022/11/21 08:23:42;;;;;;;34.25;18.48;;;;;;;;;;6233061;23;20008;-77
2022/11/21 08:26:35;;;;;;;34.25;19.65;;;;;;;;;;6221959;23;20016;-80
2022/11/21 08:29:10;;;;;;;39.30;20.02;;;;;;;;;;6251266;23;20022;-80
2022/11/21 08:31:48;;;;;;;37.05;19.48;;;;;;;;;;6223629;23;20004;-81
2022/11/21 08:34:26;;;;;;;37.15;19.48;;;;;;;;;;6251872;23;20003;-80
2022/11/21 08:40:01;;;;;;;;;;;;;;;;;;;;;
2022/11/21 08:42:36;;;;;;;28.52;15.88;;;;;;;;;;6253685;23;20035;-79
2022/11/21 08:51:51;;;;;;;33.38;17.23;;;;;;;;;;6237966;23;20467;-80
2022/11/21 08:54:38;;;;;;;31.52;16.48;;;;;;;;;;6231377;23;20004;-80
2022/11/21 08:57:35;;;;;;;;;;;;;;;;;;;;;
2022/11/21 09:00:11;;;;;;;;;;;;;;;;;;;;;
2022/11/21 09:03:28;;;;;;;28.35;15.93;;;;;;;;;;6247970;23;20026;-80
2022/11/21 09:09:33;;;;;;;36.75;19.15;;;;;;;;;;6236344;23;20004;-80
2022/11/21 09:21:33;;;;;;;38.70;19.95;;;;;;;;;;6187860;23;20111;-80
2022/11/21 09:24:07;;;;;;;38.75;20.52;;;;;;;;;;6184319;23;20071;-79
2022/11/21 09:26:39;;;;;;;39.50;19.90;;;;;;;;;;6159525;23;20005;-80
2022/11/21 09:29:35;;;;;;;38.17;18.90;;;;;;;;;;6188783;23;20032;-80
2022/11/21 09:32:15;;;;;;;40.03;20.88;;;;;;;;;;6186320;23;20096;-80
2022/11/21 09:34:47;;;;;;;42.20;21.65;;;;;;;;;;6160361;23;20012;-81
2022/11/21 09:37:46;;;;;;;33.58;18.48;;;;;;;;;;6161280;23;20009;-81
2022/11/21 09:40:15;;;;;;;42.58;21.00;;;;;;;;;;6187742;23;20009;-80
2022/11/21 09:43:05;;;;;;;38.83;20.70;;;;;;;;;;6186564;23;20140;-80
2022/11/21 09:45:59;;;;;;;38.38;18.83;;;;;;;;;;6186676;23;20084;-79
2022/11/21 09:48:49;;;;;;;40.92;20.95;;;;;;;;;;6163664;23;20040;-80
2022/11/21 09:51:20;;;;;;;39.40;20.63;;;;;;;;;;6170589;23;20028;-79
2022/11/21 09:54:15;;;;;;;;;;;;;;;;;;;;;
2022/11/21 10:00:23;;;;;;;;;;;;;;;;;;6125212;23;20014;-78
2022/11/21 10:03:15;;;;;;;28.75;16.50;;;;;;;;;;6157317;23;19935;-78
2022/11/21 10:06:04;;;;;;;35.17;18.42;;;;;;;;;;6160054;23;20005;-79
2022/11/21 10:08:58;;;;;;;37.67;19.83;;;;;;;;;;6162733;23;20008;-80
2022/11/21 10:11:35;;;;;;;38.17;21.35;;;;;;;;;;6188755;23;20084;-79
2022/11/21 10:14:22;;;;;;;43.92;22.58;;;;;;;;;;6169486;23;20099;-79
2022/11/21 10:16:58;;;;;;;37.53;20.00;;;;;;;;;;6168127;23;20033;-80
2022/11/21 10:19:49;;;;;;;36.05;20.35;;;;;;;;;;6163503;23;20147;-80
2022/11/21 10:22:53;;;;;;;37.33;20.55;;;;;;;;;;6169801;23;20005;-81
2022/11/21 10:29:24;;;;;;;;;;;;;;;;;;;;;
2022/11/21 10:31:56;;;;;;;30.90;17.65;;;;;;;;;;6104459;23;20101;-81
2022/11/21 10:34:47;;;;;;;31.52;17.33;;;;;;;;;;6171288;23;20014;-79
2022/11/21 10:37:37;;;;;;;33.90;18.98;;;;;;;;;;6094311;23;20003;-82
2022/11/21 10:40:31;;;;;;;;;;;;;;;;;;;;;
2022/11/21 10:46:15;;;;;;;34.60;18.58;;;;;;;;;;6049536;23;20026;-81
2022/11/21 10:49:07;;;;;;;32.42;18.80;;;;;;;;;;6102831;23;20017;-80
2022/11/21 10:51:42;;;;;;;34.03;18.13;;;;;;;;;;6101357;23;20458;-81
2022/11/21 10:57:51;;;;;;;35.65;20.02;;;;;;;;;;6101311;23;20002;-80
2022/11/21 11:00:35;;;;;;;38.03;20.13;;;;;;;;;;6063478;23;20002;-82
2022/11/21 11:03:24;;;;;;;40.65;21.42;;;;;;;;;;6099075;23;20065;-78
2022/11/21 11:06:16;;;;;;;46.00;22.92;;;;;;;;;;6011693;23;20067;-79
2022/11/21 11:09:11;;;;;;;41.33;21.85;;;;;;;;;;6099961;23;20430;-79
2022/11/21 11:12:01;;;;;;;40.67;22.15;;;;;;;;;;6102377;23;20399;-80
2022/11/21 11:14:30;;;;;;;38.00;21.30;;;;;;;;;;6069156;23;20430;-80
2022/11/21 11:17:18;;;;;;;42.00;22.50;;;;;;;;;;6102617;23;20003;-80
2022/11/21 11:20:28;;;;;;;40.63;20.35;;;;;;;;;;6100308;23;20029;-80
2022/11/21 11:23:00;;;;;;;34.58;20.50;;;;;;;;;;6020270;23;20004;-80
2022/11/21 11:26:06;;;;;;;41.83;23.08;;;;;;;;;;6103705;23;20343;-80
2022/11/21 11:31:58;;;;;;;39.42;20.95;;;;;;;;;;6102269;23;20062;-80
2022/11/21 11:34:52;;;;;;;43.67;22.90;;;;;;;;;;6102178;23;20097;-78
2022/11/21 11:37:30;;;;;;;46.22;22.45;;;;;;;;;;6117610;23;20085;-79
2022/11/21 11:40:25;;;;;;;40.85;21.58;;;;;;;;;;6126985;23;20006;-79
2022/11/21 11:58:53;;;;;;;;;;;;;;;;;;;;;
2022/11/21 12:04:37;;;;;;;;;;;;;;;;;;;;;
2022/11/21 12:07:44;;;;;;;46.47;23.30;;;;;;;;;;6123324;23;20076;-77
2022/11/21 12:10:23;;;;;;;43.90;22.05;;;;;;;;;;6045884;23;20003;-77
2022/11/21 12:13:06;;;;;;;42.10;22.02;;;;;;;;;;6070692;23;20067;-80
2022/11/21 12:15:52;;;;;;;47.08;22.85;;;;;;;;;;6111637;23;20002;-77
2022/11/21 12:18:53;;;;;;;44.95;24.02;;;;;;;;;;6128469;23;20033;-79
2022/11/21 12:25:32;;;;;;;44.33;21.75;;;;;;;;;;6124296;23;20016;-79
2022/11/21 12:31:18;;;;;;;44.25;22.38;;;;;;;;;;6057214;23;20272;-79
2022/11/21 12:40:41;;;;;;;45.47;24.15;;;;;;;;;;6126724;23;20414;-79
2022/11/21 12:43:42;;;;;;;50.28;24.05;;;;;;;;;;6127391;23;20006;-79
2022/11/21 12:46:40;;;;;;;48.85;22.40;;;;;;;;;;6124292;23;20006;-80
2022/11/21 12:55:18;;;;;;;46.50;21.73;;;;;;;;;;6126814;23;20016;-78
2022/11/21 12:58:08;;;;;;;45.85;23.00;;;;;;;;;;6119816;23;20443;-80
2022/11/21 13:09:26;;;;;;;;;;;;;;;;;;;;;
2022/11/21 13:18:40;;;;;;;48.45;24.55;;;;;;;;;;6109504;23;20025;-83
2022/11/21 13:21:25;;;;;;;47.60;22.13;;;;;;;;;;6130108;23;20106;-79
2022/11/21 13:24:19;;;;;;;;;;;;;;;;;;;;;
2022/11/21 13:33:02;;;;;;;;;;;;;;;;;;;;;
2022/11/21 13:36:15;;;;;;;50.70;24.13;;;;;;;;;;6122694;23;20069;-79
2022/11/21 13:47:59;;;;;;;50.95;23.45;;;;;;;;;;6125115;23;20002;-79
2022/11/21 13:51:00;;;;;;;54.17;24.75;;;;;;;;;;6126125;23;20006;-79
2022/11/21 13:54:03;;;;;;;49.50;23.67;;;;;;;;;;6086547;23;20137;-79
2022/11/21 14:03:41;;;;;;;48.40;23.45;;;;;;;;;;6128394;23;20002;-82
2022/11/21 14:06:23;;;;;;;;;;;;;;;;;;;;;
2022/11/21 14:09:30;;;;;;;54.15;26.00;;;;;;;;;;6161157;23;20032;-77
2022/11/21 14:12:12;;;;;;;51.40;25.02;;;;;;;;;;6159130;23;20013;-80
2022/11/21 14:14:59;;;;;;;53.08;25.05;;;;;;;;;;6160136;23;20058;-79
2022/11/21 14:17:45;;;;;;;58.80;26.73;;;;;;;;;;6158534;23;20446;-80
2022/11/21 14:20:24;;;;;;;49.08;24.75;;;;;;;;;;6159776;23;20001;-80
2022/11/21 14:29:40;;;;;;;58.03;26.27;;;;;;;;;;6159049;23;20403;-80
2022/11/21 14:32:21;;;;;;;57.13;26.33;;;;;;;;;;6069783;23;20025;-83
2022/11/21 14:34:50;;;;;;;61.90;26.23;;;;;;;;;;6106881;23;20040;-79
2022/11/21 14:37:33;;;;;;;65.93;27.65;;;;;;;;;;6160369;23;20001;-78
2022/11/21 14:40:01;;;;;;;65.78;27.90;;;;;;;;;;6160052;23;20001;-79
2022/11/21 14:42:47;;;;;;;64.10;29.05;;;;;;;;;;6159593;23;20004;-80
2022/11/21 14:45:27;;;;;;;64.40;30.58;;;;;;;;;;6156244;23;20021;-80
2022/11/21 14:48:04;;;;;;;54.45;23.25;;;;;;;;;;6157415;23;20461;-81
2022/11/21 14:50:55;;;;;;;61.63;29.50;;;;;;;;;;6158621;23;20496;-82
2022/11/21 14:53:35;;;;;;;66.68;27.95;;;;;;;;;;6164110;23;20005;-79
2022/11/21 14:56:28;;;;;;;71.60;28.25;;;;;;;;;;6162958;23;20024;-79
2022/11/21 14:59:06;;;;;;;73.47;29.98;;;;;;;;;;6160388;23;20024;-79
2022/11/21 15:04:46;;;;;;;72.85;29.38;;;;;;;;;;6080018;23;20041;-81
2022/11/21 15:07:19;;;;;;;63.50;28.40;;;;;;;;;;6157794;23;20008;-78
2022/11/21 15:09:53;;;;;;;73.00;28.83;;;;;;;;;;6157157;23;20020;-79
2022/11/21 15:12:24;;;;;;;72.50;30.02;;;;;;;;;;6156403;23;20020;-80
2022/11/21 15:14:56;;;;;;;74.90;30.95;;;;;;;;;;6155990;23;20134;-78
2022/11/21 15:17:37;;;;;;;71.43;30.63;;;;;;;;;;6154082;23;20012;-78
2022/11/21 15:20:25;;;;;;;65.60;28.77;;;;;;;;;;6152768;23;20548;-79
2022/11/21 15:23:08;;;;;;;70.97;30.33;;;;;;;;;;6154307;23;20438;-79
2022/11/21 15:25:48;;;;;;;79.15;31.63;;;;;;;;;;6154092;23;20457;-79
2022/11/21 15:28:18;;;;;;;77.05;31.90;;;;;;;;;;6153213;23;20088;-78
2022/11/21 15:30:47;;;;;;;57.43;25.47;;;;;;;;;;6155387;23;20060;-77
2022/11/21 15:33:15;;;;;;;77.15;31.10;;;;;;;;;;6156235;23;20068;-78
2022/11/21 15:36:18;;;;;;;76.80;30.58;;;;;;;;;;6153835;23;20092;-78
2022/11/21 15:39:08;;;;;;;71.43;28.60;;;;;;;;;;6157524;23;20006;-78
2022/11/21 15:41:39;;;;;;;75.13;27.98;;;;;;;;;;6101846;23;20009;-78
2022/11/21 15:44:07;;;;;;;74.47;30.50;;;;;;;;;;6155836;23;20025;-78
2022/11/21 15:46:45;;;;;;;70.35;28.25;;;;;;;;;;6157362;23;20017;-78
2022/11/21 15:49:13;;;;;;;73.22;29.92;;;;;;;;;;6160546;23;20127;-78
2022/11/21 15:51:59;;;;;;;70.53;26.95;;;;;;;;;;6162322;23;20010;-77
2022/11/21 15:54:31;;;;;;;72.45;28.40;;;;;;;;;;6152511;23;20139;-77
2022/11/21 15:56:57;;;;;;;75.38;30.77;;;;;;;;;;6155311;23;20016;-79
2022/11/21 16:02:22;;;;;;;73.88;30.63;;;;;;;;;;6155410;23;20506;-79
2022/11/21 16:04:48;;;;;;;68.93;28.77;;;;;;;;;;6153951;23;20415;-79
2022/11/21 16:07:17;;;;;;;79.35;29.70;;;;;;;;;;6153931;23;20038;-76
2022/11/21 16:09:45;;;;;;;75.63;29.70;;;;;;;;;;6153558;23;20005;-78
2022/11/21 16:12:22;;;;;;;73.40;29.27;;;;;;;;;;6154711;23;20005;-78
2022/11/21 16:14:58;;;;;;;72.15;30.15;;;;;;;;;;6154725;23;20015;-80
2022/11/21 16:17:45;;;;;;;71.72;29.38;;;;;;;;;;6156403;23;20001;-78
2022/11/21 16:20:19;;;;;;;75.82;30.35;;;;;;;;;;6158695;23;20020;-79
2022/11/21 16:22:48;;;;;;;77.45;28.95;;;;;;;;;;6158852;23;20037;-77
2022/11/21 16:25:22;;;;;;;76.90;29.08;;;;;;;;;;6157398;23;20005;-78
2022/11/21 16:27:55;;;;;;;75.35;30.40;;;;;;;;;;6155591;23;20044;-77
2022/11/21 16:30:21;;;;;;;77.07;29.35;;;;;;;;;;6158251;23;20088;-78
2022/11/21 16:32:55;;;;;;;77.65;32.03;;;;;;;;;;6157476;23;20040;-80
2022/11/21 16:35:26;;;;;;;79.80;31.60;;;;;;;;;;6157192;23;20052;-78
2022/11/21 16:37:52;;;;;;;73.65;30.05;;;;;;;;;;6154262;23;20006;-78
2022/11/21 16:40:24;;;;;;;74.15;29.58;;;;;;;;;;6155839;23;20001;-78
2022/11/21 16:42:50;;;;;;;73.72;29.80;;;;;;;;;;6156478;23;20006;-79
2022/11/21 16:45:30;;;;;;;74.47;31.77;;;;;;;;;;6155603;23;20017;-78
2022/11/21 16:47:56;;;;;;;86.88;32.28;;;;;;;;;;6156660;23;20002;-79
2022/11/21 16:50:24;;;;;;;75.93;30.58;;;;;;;;;;6159794;23;20426;-78
2022/11/21 16:52:50;;;;;;;76.32;31.25;;;;;;;;;;6156802;23;20076;-78
2022/11/21 16:55:21;;;;;;;72.15;30.58;;;;;;;;;;6156967;23;20418;-78
2022/11/21 16:58:16;;;;;;;;;;;;;;;;;;6157082;23;20077;-77
2022/11/21 17:00:41;;;;;;;76.65;30.17;;;;;;;;;;6155264;23;19900;-78
2022/11/21 17:03:10;;;;;;;76.00;29.98;;;;;;;;;;6158176;23;20010;-77
2022/11/21 17:05:38;;;;;;;74.65;29.35;;;;;;;;;;6162115;23;20033;-78
2022/11/21 17:08:27;;;;;;;78.57;29.67;;;;;;;;;;6161974;23;20457;-77
2022/11/21 17:10:56;;;;;;;84.28;32.03;;;;;;;;;;6162565;23;20036;-77
2022/11/21 17:13:24;;;;;;;78.82;30.83;;;;;;;;;;6158895;23;20004;-77
2022/11/21 17:15:50;;;;;;;73.20;29.27;;;;;;;;;;6158765;23;20001;-79
2022/11/21 17:18:34;;;;;;;76.47;30.27;;;;;;;;;;6156362;23;20009;-78
2022/11/21 17:21:11;;;;;;;76.82;30.95;;;;;;;;;;6154989;23;20009;-79
2022/11/21 17:23:48;;;;;;;61.72;27.17;;;;;;;;;;6158341;23;20450;-78
2022/11/21 17:26:18;;;;;;;76.80;31.02;;;;;;;;;;6159873;23;19997;-79
2022/11/21 17:28:52;;;;;;;69.55;29.73;;;;;;;;;;6158719;23;20433;-79
2022/11/21 17:31:40;;;;;;;72.60;30.40;;;;;;;;;;6169200;23;20033;-80
2022/11/21 17:34:22;;;;;;;66.95;28.13;;;;;;;;;;6170296;23;20002;-76
2022/11/21 17:36:49;;;;;;;71.55;28.35;;;;;;;;;;6168749;23;20014;-79
2022/11/21 17:39:23;;;;;;;72.55;30.52;;;;;;;;;;6168223;23;20397;-75
2022/11/21 17:41:57;;;;;;;69.43;30.63;;;;;;;;;;6162831;23;20006;-76
2022/11/21 17:44:25;;;;;;;71.28;30.83;;;;;;;;;;6156836;23;20085;-77
2022/11/21 17:46:51;;;;;;;62.95;28.25;;;;;;;;;;6153937;23;20006;-77
2022/11/21 17:49:25;;;;;;;75.60;29.88;;;;;;;;;;6154427;23;20005;-78
2022/11/21 17:51:51;;;;;;;78.20;31.40;;;;;;;;;;6155495;23;20006;-78